sensor_id;sensor_type;location;lat;lon;timestamp;pressure;altitude;pressure_sealevel;temperature;humidity
71976;BME280;68326;52.124;5.424;2023-04-28T00:00:01;101433.81;;;9.34;60.32
71976;BME280;68326;52.124;5.424;2023-04-28T00:02:29;101452.34;;;9.25;58.72
71976;BME280;68326;52.124;5.424;2023-04-28T00:04:56;101447.94;;;9.27;58.21
71976;BME280;68326;52.124;5.424;2023-04-28T00:07:23;101455.63;;;9.30;58.19
71976;BME280;68326;52.124;5.424;2023-04-28T00:09:50;101456.41;;;9.32;57.79
71976;BME280;68326;52.124;5.424;2023-04-28T00:12:16;101446.94;;;9.31;58.22
71976;BME280;68326;52.124;5.424;2023-04-28T00:14:43;101429.75;;;9.27;60.23
71976;BME280;68326;52.124;5.424;2023-04-28T00:17:09;101424.75;;;9.23;59.67
71976;BME280;68326;52.124;5.424;2023-04-28T00:19:36;101428.38;;;9.17;58.00
71976;BME280;68326;52.124;5.424;2023-04-28T00:22:03;101424.16;;;9.14;57.25
71976;BME280;68326;52.124;5.424;2023-04-28T00:24:30;101415.41;;;9.17;58.65
71976;BME280;68326;52.124;5.424;2023-04-28T00:26:58;101402.38;;;9.18;58.32
71976;BME280;68326;52.124;5.424;2023-04-28T00:29:28;101401.63;;;9.15;57.71
71976;BME280;68326;52.124;5.424;2023-04-28T00:31:54;101398.19;;;9.14;59.19
71976;BME280;68326;52.124;5.424;2023-04-28T00:34:21;101386.72;;;9.20;58.10
71976;BME280;68326;52.124;5.424;2023-04-28T00:36:47;101387.50;;;9.22;58.66
71976;BME280;68326;52.124;5.424;2023-04-28T00:39:15;101384.00;;;9.25;60.00
71976;BME280;68326;52.124;5.424;2023-04-28T00:41:43;101376.19;;;9.25;57.72
71976;BME280;68326;52.124;5.424;2023-04-28T00:44:10;101387.41;;;9.25;58.18
71976;BME280;68326;52.124;5.424;2023-04-28T00:46:36;101393.63;;;9.21;59.72
71976;BME280;68326;52.124;5.424;2023-04-28T00:49:03;101393.66;;;9.19;57.24
71976;BME280;68326;52.124;5.424;2023-04-28T00:51:29;101387.69;;;9.17;58.18
71976;BME280;68326;52.124;5.424;2023-04-28T00:53:58;101379.06;;;9.17;58.50
71976;BME280;68326;52.124;5.424;2023-04-28T00:56:25;101370.44;;;9.16;58.94
71976;BME280;68326;52.124;5.424;2023-04-28T00:58:53;101375.50;;;9.19;60.29
71976;BME280;68326;52.124;5.424;2023-04-28T01:01:20;101370.31;;;9.19;60.27
71976;BME280;68326;52.124;5.424;2023-04-28T01:03:46;101368.72;;;9.15;58.65
71976;BME280;68326;52.124;5.424;2023-04-28T01:06:13;101363.66;;;9.12;59.71
71976;BME280;68326;52.124;5.424;2023-04-28T01:08:40;101361.88;;;9.13;59.40
71976;BME280;68326;52.124;5.424;2023-04-28T01:11:07;101360.88;;;9.17;59.55
71976;BME280;68326;52.124;5.424;2023-04-28T01:13:39;101353.94;;;9.17;60.80
71976;BME280;68326;52.124;5.424;2023-04-28T01:16:06;101353.94;;;9.17;59.48
71976;BME280;68326;52.124;5.424;2023-04-28T01:18:33;101357.31;;;9.19;59.58
71976;BME280;68326;52.124;5.424;2023-04-28T01:21:00;101358.16;;;9.20;59.81
71976;BME280;68326;52.124;5.424;2023-04-28T01:23:26;101355.56;;;9.20;60.81
71976;BME280;68326;52.124;5.424;2023-04-28T01:25:52;101353.88;;;9.19;60.79
71976;BME280;68326;52.124;5.424;2023-04-28T01:28:19;101353.94;;;9.17;61.40
71976;BME280;68326;52.124;5.424;2023-04-28T01:30:46;101347.91;;;9.17;59.72
71976;BME280;68326;52.124;5.424;2023-04-28T01:33:12;101345.44;;;9.14;60.80
71976;BME280;68326;52.124;5.424;2023-04-28T01:35:38;101345.47;;;9.12;60.59
71976;BME280;68326;52.124;5.424;2023-04-28T01:38:05;101344.56;;;9.13;61.18
71976;BME280;68326;52.124;5.424;2023-04-28T01:40:31;101333.34;;;9.13;59.50
71976;BME280;68326;52.124;5.424;2023-04-28T01:42:58;101332.53;;;9.11;60.32
71976;BME280;68326;52.124;5.424;2023-04-28T01:45:24;101328.19;;;9.11;61.00
71976;BME280;68326;52.124;5.424;2023-04-28T01:47:51;101323.91;;;9.10;60.85
71976;BME280;68326;52.124;5.424;2023-04-28T01:50:17;101317.00;;;9.09;61.13
71976;BME280;68326;52.124;5.424;2023-04-28T01:52:44;101310.94;;;9.10;61.75
71976;BME280;68326;52.124;5.424;2023-04-28T01:55:10;101305.84;;;9.07;61.60
71976;BME280;68326;52.124;5.424;2023-04-28T01:57:37;101309.47;;;9.03;60.43
71976;BME280;68326;52.124;5.424;2023-04-28T02:00:04;101304.38;;;9.00;60.71
71976;BME280;68326;52.124;5.424;2023-04-28T02:02:30;101313.13;;;8.97;60.10
71976;BME280;68326;52.124;5.424;2023-04-28T02:04:57;101296.75;;;8.95;62.14
71976;BME280;68326;52.124;5.424;2023-04-28T02:07:23;101301.91;;;8.97;61.76
71976;BME280;68326;52.124;5.424;2023-04-28T02:09:50;101300.09;;;8.99;60.92
71976;BME280;68326;52.124;5.424;2023-04-28T02:12:17;101305.22;;;9.01;60.80
71976;BME280;68326;52.124;5.424;2023-04-28T02:14:43;101300.91;;;9.01;61.67
71976;BME280;68326;52.124;5.424;2023-04-28T02:17:09;101303.38;;;9.04;61.42
71976;BME280;68326;52.124;5.424;2023-04-28T02:19:36;101296.38;;;9.06;61.09
71976;BME280;68326;52.124;5.424;2023-04-28T02:22:03;101292.00;;;9.07;60.37
71976;BME280;68326;52.124;5.424;2023-04-28T02:24:33;101289.47;;;9.05;60.15
71976;BME280;68326;52.124;5.424;2023-04-28T02:27:00;101282.59;;;9.04;60.05
71976;BME280;68326;52.124;5.424;2023-04-28T02:29:26;101275.72;;;9.03;59.89
71976;BME280;68326;52.124;5.424;2023-04-28T02:31:53;101271.38;;;9.04;61.20
71976;BME280;68326;52.124;5.424;2023-04-28T02:34:19;101273.88;;;9.05;61.55
71976;BME280;68326;52.124;5.424;2023-04-28T02:36:46;101258.41;;;9.04;59.52
71976;BME280;68326;52.124;5.424;2023-04-28T02:39:13;101268.78;;;9.04;60.38
71976;BME280;68326;52.124;5.424;2023-04-28T02:41:39;101262.84;;;9.00;60.40
71976;BME280;68326;52.124;5.424;2023-04-28T02:44:06;101267.19;;;9.00;60.69
71976;BME280;68326;52.124;5.424;2023-04-28T02:46:32;101255.00;;;9.02;60.86
71976;BME280;68326;52.124;5.424;2023-04-28T02:48:59;101256.75;;;9.01;61.07
71976;BME280;68326;52.124;5.424;2023-04-28T02:51:25;101251.66;;;8.98;61.02
71976;BME280;68326;52.124;5.424;2023-04-28T02:53:52;101242.13;;;8.98;60.56
71976;BME280;68326;52.124;5.424;2023-04-28T02:56:18;101244.69;;;9.00;62.39
71976;BME280;68326;52.124;5.424;2023-04-28T02:58:44;101230.03;;;8.99;61.32
71976;BME280;68326;52.124;5.424;2023-04-28T03:01:11;101226.63;;;8.97;61.45
71976;BME280;68326;52.124;5.424;2023-04-28T03:03:38;101219.72;;;8.96;60.94
71976;BME280;68326;52.124;5.424;2023-04-28T03:06:05;101218.06;;;8.95;61.98
71976;BME280;68326;52.124;5.424;2023-04-28T03:08:31;101223.25;;;8.95;62.60
71976;BME280;68326;52.124;5.424;2023-04-28T03:10:58;101215.38;;;8.96;62.64
71976;BME280;68326;52.124;5.424;2023-04-28T03:13:24;101213.47;;;9.02;62.20
71976;BME280;68326;52.124;5.424;2023-04-28T03:15:51;101217.03;;;8.99;61.93
71976;BME280;68326;52.124;5.424;2023-04-28T03:18:17;101210.19;;;8.96;61.25
71976;BME280;68326;52.124;5.424;2023-04-28T03:20:44;101208.56;;;8.94;62.07
71976;BME280;68326;52.124;5.424;2023-04-28T03:23:10;101199.88;;;8.95;62.39
71976;BME280;68326;52.124;5.424;2023-04-28T03:25:37;101203.28;;;8.97;62.24
71976;BME280;68326;52.124;5.424;2023-04-28T03:28:03;101203.38;;;8.94;62.00
71976;BME280;68326;52.124;5.424;2023-04-28T03:30:30;101200.69;;;8.97;61.08
71976;BME280;68326;52.124;5.424;2023-04-28T03:32:56;101195.53;;;8.95;61.20
71976;BME280;68326;52.124;5.424;2023-04-28T03:35:23;101192.88;;;8.97;63.17
71976;BME280;68326;52.124;5.424;2023-04-28T03:37:49;101186.00;;;8.96;62.83
71976;BME280;68326;52.124;5.424;2023-04-28T03:40:16;101184.22;;;8.96;62.85
71976;BME280;68326;52.124;5.424;2023-04-28T03:42:43;101183.22;;;9.01;62.32
71976;BME280;68326;52.124;5.424;2023-04-28T03:45:09;101174.72;;;8.97;63.59
71976;BME280;68326;52.124;5.424;2023-04-28T03:47:36;101176.69;;;8.90;62.14
71976;BME280;68326;52.124;5.424;2023-04-28T03:50:03;101175.97;;;8.87;62.67
71976;BME280;68326;52.124;5.424;2023-04-28T03:52:29;101179.53;;;8.84;62.39
71976;BME280;68326;52.124;5.424;2023-04-28T03:54:56;101180.47;;;8.82;62.40
71976;BME280;68326;52.124;5.424;2023-04-28T03:57:22;101174.63;;;8.76;62.03
71976;BME280;68326;52.124;5.424;2023-04-28T03:59:49;101183.47;;;8.71;62.67
71976;BME280;68326;52.124;5.424;2023-04-28T04:02:16;101166.41;;;8.65;62.84
71976;BME280;68326;52.124;5.424;2023-04-28T04:04:42;101165.47;;;8.66;63.48
71976;BME280;68326;52.124;5.424;2023-04-28T04:07:10;101164.69;;;8.64;63.58
71976;BME280;68326;52.124;5.424;2023-04-28T04:09:36;101158.63;;;8.65;63.59
71976;BME280;68326;52.124;5.424;2023-04-28T04:12:03;101154.22;;;8.67;64.38
71976;BME280;68326;52.124;5.424;2023-04-28T04:14:29;101161.03;;;8.70;62.95
71976;BME280;68326;52.124;5.424;2023-04-28T04:16:56;101150.72;;;8.68;64.57
71976;BME280;68326;52.124;5.424;2023-04-28T04:19:22;101144.56;;;8.71;63.84
71976;BME280;68326;52.124;5.424;2023-04-28T04:21:51;101141.97;;;8.71;64.90
71976;BME280;68326;52.124;5.424;2023-04-28T04:24:18;101130.75;;;8.70;65.55
71976;BME280;68326;52.124;5.424;2023-04-28T04:26:44;101140.34;;;8.68;65.05
71976;BME280;68326;52.124;5.424;2023-04-28T04:29:11;101141.06;;;8.72;65.01
71976;BME280;68326;52.124;5.424;2023-04-28T04:31:37;101140.28;;;8.70;63.30
71976;BME280;68326;52.124;5.424;2023-04-28T04:34:04;101139.25;;;8.74;65.14
71976;BME280;68326;52.124;5.424;2023-04-28T04:36:30;101133.91;;;8.78;64.40
71976;BME280;68326;52.124;5.424;2023-04-28T04:38:58;101132.97;;;8.80;64.88
71976;BME280;68326;52.124;5.424;2023-04-28T04:41:25;101120.75;;;8.83;64.50
71976;BME280;68326;52.124;5.424;2023-04-28T04:43:51;101119.75;;;8.86;64.85
71976;BME280;68326;52.124;5.424;2023-04-28T04:46:18;101125.81;;;8.86;64.45
71976;BME280;68326;52.124;5.424;2023-04-28T04:48:44;101117.06;;;8.89;65.22
71976;BME280;68326;52.124;5.424;2023-04-28T04:51:11;101119.53;;;8.92;65.21
71976;BME280;68326;52.124;5.424;2023-04-28T04:53:37;101122.91;;;8.94;64.98
71976;BME280;68326;52.124;5.424;2023-04-28T04:56:04;101117.63;;;8.97;66.06
71976;BME280;68326;52.124;5.424;2023-04-28T04:58:30;101111.56;;;8.96;64.64
71976;BME280;68326;52.124;5.424;2023-04-28T05:00:57;101110.84;;;8.93;65.13
71976;BME280;68326;52.124;5.424;2023-04-28T05:03:23;101098.13;;;8.87;65.77
71976;BME280;68326;52.124;5.424;2023-04-28T05:05:50;101101.56;;;8.87;67.25
71976;BME280;68326;52.124;5.424;2023-04-28T05:08:17;101099.78;;;8.88;66.11
71976;BME280;68326;52.124;5.424;2023-04-28T05:10:43;101097.94;;;8.91;66.75
71976;BME280;68326;52.124;5.424;2023-04-28T05:13:10;101103.13;;;8.91;65.21
71976;BME280;68326;52.124;5.424;2023-04-28T05:15:36;101100.47;;;8.93;66.20
71976;BME280;68326;52.124;5.424;2023-04-28T05:18:02;101104.66;;;8.97;67.26
71976;BME280;68326;52.124;5.424;2023-04-28T05:20:35;101100.88;;;9.04;66.61
71976;BME280;68326;52.124;5.424;2023-04-28T05:23:02;101103.25;;;9.10;66.52
71976;BME280;68326;52.124;5.424;2023-04-28T05:25:28;101097.06;;;9.13;66.80
71976;BME280;68326;52.124;5.424;2023-04-28T05:27:55;101099.44;;;9.19;68.12
71976;BME280;68326;52.124;5.424;2023-04-28T05:30:21;101097.66;;;9.19;67.76
71976;BME280;68326;52.124;5.424;2023-04-28T05:32:47;101107.03;;;9.24;68.57
71976;BME280;68326;52.124;5.424;2023-04-28T05:35:14;101109.56;;;9.25;67.55
71976;BME280;68326;52.124;5.424;2023-04-28T05:37:40;101111.13;;;9.29;68.43
71976;BME280;68326;52.124;5.424;2023-04-28T05:40:09;101121.47;;;9.31;69.71
71976;BME280;68326;52.124;5.424;2023-04-28T05:42:35;101120.53;;;9.32;70.87
71976;BME280;68326;52.124;5.424;2023-04-28T05:45:02;101116.31;;;9.29;72.40
71976;BME280;68326;52.124;5.424;2023-04-28T05:47:28;101115.59;;;9.26;71.65
71976;BME280;68326;52.124;5.424;2023-04-28T05:49:56;101108.06;;;9.19;71.82
71976;BME280;68326;52.124;5.424;2023-04-28T05:52:22;101098.63;;;9.17;74.14
71976;BME280;68326;52.124;5.424;2023-04-28T05:54:49;101106.38;;;9.18;76.17
71976;BME280;68326;52.124;5.424;2023-04-28T05:57:15;101105.53;;;9.18;75.79
71976;BME280;68326;52.124;5.424;2023-04-28T05:59:42;101108.25;;;9.15;76.27
71976;BME280;68326;52.124;5.424;2023-04-28T06:02:08;101121.41;;;9.10;77.53
71976;BME280;68326;52.124;5.424;2023-04-28T06:04:35;101118.09;;;9.07;78.20
71976;BME280;68326;52.124;5.424;2023-04-28T06:07:02;101123.31;;;9.05;77.85
71976;BME280;68326;52.124;5.424;2023-04-28T06:09:28;101119.91;;;9.05;78.87
71976;BME280;68326;52.124;5.424;2023-04-28T06:11:55;101119.91;;;9.05;79.01
71976;BME280;68326;52.124;5.424;2023-04-28T06:14:21;101113.88;;;9.04;79.47
71976;BME280;68326;52.124;5.424;2023-04-28T06:16:49;101101.72;;;9.05;80.11
71976;BME280;68326;52.124;5.424;2023-04-28T06:19:16;101093.94;;;9.05;81.45
71976;BME280;68326;52.124;5.424;2023-04-28T06:21:44;101094.06;;;9.02;81.60
71976;BME280;68326;52.124;5.424;2023-04-28T06:24:11;101084.13;;;8.91;80.31
71976;BME280;68326;52.124;5.424;2023-04-28T06:26:37;101082.31;;;8.93;81.13
71976;BME280;68326;52.124;5.424;2023-04-28T06:29:04;101088.03;;;9.01;81.88
71976;BME280;68326;52.124;5.424;2023-04-28T06:31:30;101079.88;;;9.10;82.48
71976;BME280;68326;52.124;5.424;2023-04-28T06:33:57;101076.06;;;9.19;82.51
71976;BME280;68326;52.124;5.424;2023-04-28T06:36:23;101073.50;;;9.17;81.67
71976;BME280;68326;52.124;5.424;2023-04-28T06:38:50;101072.44;;;9.23;83.32
71976;BME280;68326;52.124;5.424;2023-04-28T06:41:16;101077.63;;;9.23;81.50
71976;BME280;68326;52.124;5.424;2023-04-28T06:43:43;101072.28;;;9.26;81.56
71976;BME280;68326;52.124;5.424;2023-04-28T06:46:09;101073.81;;;9.32;84.23
71976;BME280;68326;52.124;5.424;2023-04-28T06:48:38;101075.22;;;9.39;83.05
71976;BME280;68326;52.124;5.424;2023-04-28T06:51:05;101081.03;;;9.46;82.91
71976;BME280;68326;52.124;5.424;2023-04-28T06:53:32;101079.84;;;9.53;83.41
71976;BME280;68326;52.124;5.424;2023-04-28T06:55:58;101074.47;;;9.57;83.57
71976;BME280;68326;52.124;5.424;2023-04-28T06:58:25;101065.63;;;9.62;84.39
71976;BME280;68326;52.124;5.424;2023-04-28T07:00:52;101069.91;;;9.63;82.82
71976;BME280;68326;52.124;5.424;2023-04-28T07:03:18;101064.59;;;9.66;83.46
71976;BME280;68326;52.124;5.424;2023-04-28T07:05:45;101059.13;;;9.72;86.15
71976;BME280;68326;52.124;5.424;2023-04-28T07:08:11;101048.72;;;9.72;85.63
71976;BME280;68326;52.124;5.424;2023-04-28T07:10:38;101047.81;;;9.73;86.21
71976;BME280;68326;52.124;5.424;2023-04-28T07:13:05;101060.31;;;9.84;86.99
71976;BME280;68326;52.124;5.424;2023-04-28T07:15:32;101058.97;;;9.95;87.04
71976;BME280;68326;52.124;5.424;2023-04-28T07:17:58;101051.78;;;10.00;87.08
71976;BME280;68326;52.124;5.424;2023-04-28T07:20:25;101060.88;;;10.11;88.42
71976;BME280;68326;52.124;5.424;2023-04-28T07:22:51;101066.56;;;10.19;88.13
71976;BME280;68326;52.124;5.424;2023-04-28T07:25:19;101064.34;;;10.30;88.39
71976;BME280;68326;52.124;5.424;2023-04-28T07:27:45;101066.41;;;10.43;88.94
71976;BME280;68326;52.124;5.424;2023-04-28T07:30:12;101068.66;;;10.50;87.65
71976;BME280;68326;52.124;5.424;2023-04-28T07:32:52;101071.94;;;10.54;88.98
71976;BME280;68326;52.124;5.424;2023-04-28T07:35:18;101068.28;;;10.58;88.32
71976;BME280;68326;52.124;5.424;2023-04-28T07:37:45;101069.75;;;10.64;87.38
71976;BME280;68326;52.124;5.424;2023-04-28T07:40:11;101070.38;;;10.69;88.84
71976;BME280;68326;52.124;5.424;2023-04-28T07:42:38;101070.78;;;10.78;89.26
71976;BME280;68326;52.124;5.424;2023-04-28T07:45:05;101066.28;;;10.82;88.27
71976;BME280;68326;52.124;5.424;2023-04-28T07:47:31;101064.38;;;10.86;88.30
71976;BME280;68326;52.124;5.424;2023-04-28T07:49:58;101051.69;;;10.97;89.47
71976;BME280;68326;52.124;5.424;2023-04-28T07:52:28;101049.56;;;11.05;87.90
71976;BME280;68326;52.124;5.424;2023-04-28T07:54:54;101045.13;;;11.07;87.50
71976;BME280;68326;52.124;5.424;2023-04-28T07:57:21;101050.09;;;11.12;87.36
71976;BME280;68326;52.124;5.424;2023-04-28T07:59:47;101046.50;;;11.14;88.10
71976;BME280;68326;52.124;5.424;2023-04-28T08:02:14;101047.88;;;11.21;87.27
71976;BME280;68326;52.124;5.424;2023-04-28T08:04:42;101047.63;;;11.26;88.08
71976;BME280;68326;52.124;5.424;2023-04-28T08:07:08;101048.03;;;11.36;89.23
71976;BME280;68326;52.124;5.424;2023-04-28T08:09:35;101049.72;;;11.37;87.85
71976;BME280;68326;52.124;5.424;2023-04-28T08:12:01;101034.22;;;11.34;88.63
71976;BME280;68326;52.124;5.424;2023-04-28T08:14:28;101037.84;;;11.31;88.03
71976;BME280;68326;52.124;5.424;2023-04-28T08:16:55;101043.94;;;11.30;88.55
71976;BME280;68326;52.124;5.424;2023-04-28T08:19:22;101043.81;;;11.33;89.14
71976;BME280;68326;52.124;5.424;2023-04-28T08:21:48;101046.25;;;11.36;89.01
71976;BME280;68326;52.124;5.424;2023-04-28T08:24:15;101055.00;;;11.35;90.13
71976;BME280;68326;52.124;5.424;2023-04-28T08:26:42;101053.22;;;11.36;90.11
71976;BME280;68326;52.124;5.424;2023-04-28T08:29:08;101054.16;;;11.35;90.44
71976;BME280;68326;52.124;5.424;2023-04-28T08:31:35;101058.50;;;11.34;90.79
71976;BME280;68326;52.124;5.424;2023-04-28T08:34:02;101058.38;;;11.37;91.23
71976;BME280;68326;52.124;5.424;2023-04-28T08:36:28;101050.56;;;11.37;92.31
71976;BME280;68326;52.124;5.424;2023-04-28T08:38:58;101043.66;;;11.36;92.92
71976;BME280;68326;52.124;5.424;2023-04-28T08:41:26;101046.00;;;11.41;92.85
71976;BME280;68326;52.124;5.424;2023-04-28T08:43:54;101041.50;;;11.45;93.00
71976;BME280;68326;52.124;5.424;2023-04-28T08:46:22;101038.19;;;11.58;93.73
71976;BME280;68326;52.124;5.424;2023-04-28T08:48:50;101041.91;;;11.70;94.60
71976;BME280;68326;52.124;5.424;2023-04-28T08:51:37;101039.59;;;11.81;94.16
71976;BME280;68326;52.124;5.424;2023-04-28T08:54:09;101048.66;;;11.74;94.14
71976;BME280;68326;52.124;5.424;2023-04-28T08:56:55;101047.66;;;11.77;94.73
71976;BME280;68326;52.124;5.424;2023-04-28T08:59:22;101038.63;;;11.84;95.28
71976;BME280;68326;52.124;5.424;2023-04-28T09:01:49;101042.78;;;11.88;96.10
71976;BME280;68326;52.124;5.424;2023-04-28T09:04:16;101041.13;;;11.86;96.61
71976;BME280;68326;52.124;5.424;2023-04-28T09:06:44;101045.75;;;11.80;95.86
71976;BME280;68326;52.124;5.424;2023-04-28T09:09:31;101042.19;;;11.81;95.88
71976;BME280;68326;52.124;5.424;2023-04-28T09:12:03;101037.09;;;11.80;95.62
71976;BME280;68326;52.124;5.424;2023-04-28T09:14:31;101032.13;;;11.75;96.16
71976;BME280;68326;52.124;5.424;2023-04-28T09:16:59;101029.72;;;11.71;96.27
71976;BME280;68326;52.124;5.424;2023-04-28T09:19:36;101031.41;;;11.72;96.05
71976;BME280;68326;52.124;5.424;2023-04-28T09:22:04;101031.41;;;11.72;97.60
71976;BME280;68326;52.124;5.424;2023-04-28T09:24:43;101024.94;;;11.79;98.31
71976;BME280;68326;52.124;5.424;2023-04-28T09:27:10;101025.72;;;11.81;97.92
71976;BME280;68326;52.124;5.424;2023-04-28T09:29:37;101028.25;;;11.82;98.81
71976;BME280;68326;52.124;5.424;2023-04-28T09:32:21;101029.84;;;11.85;97.90
71976;BME280;68326;52.124;5.424;2023-04-28T09:34:50;101034.22;;;11.84;99.23
71976;BME280;68326;52.124;5.424;2023-04-28T09:37:19;101031.44;;;11.88;98.68
71976;BME280;68326;52.124;5.424;2023-04-28T09:39:48;101033.19;;;11.89;99.02
71976;BME280;68326;52.124;5.424;2023-04-28T09:42:35;101034.72;;;11.93;98.82
71976;BME280;68326;52.124;5.424;2023-04-28T09:47:30;101024.84;;;11.98;100.00
71976;BME280;68326;52.124;5.424;2023-04-28T09:50:00;101027.06;;;12.06;100.00
71976;BME280;68326;52.124;5.424;2023-04-28T09:52:27;101019.06;;;12.09;100.00
71976;BME280;68326;52.124;5.424;2023-04-28T09:54:55;101017.41;;;12.08;100.00
71976;BME280;68326;52.124;5.424;2023-04-28T09:57:22;101021.41;;;12.13;100.00
71976;BME280;68326;52.124;5.424;2023-04-28T09:59:50;101014.97;;;12.20;100.00
71976;BME280;68326;52.124;5.424;2023-04-28T10:02:18;101014.97;;;12.20;100.00
71976;BME280;68326;52.124;5.424;2023-04-28T10:05:08;101019.16;;;12.23;100.00
71976;BME280;68326;52.124;5.424;2023-04-28T10:07:37;101013.19;;;12.21;100.00
71976;BME280;68326;52.124;5.424;2023-04-28T10:10:06;101006.81;;;12.27;100.00
71976;BME280;68326;52.124;5.424;2023-04-28T10:12:33;101008.41;;;12.29;100.00
71976;BME280;68326;52.124;5.424;2023-04-28T10:15:00;101009.06;;;12.33;100.00
71976;BME280;68326;52.124;5.424;2023-04-28T10:17:27;101002.91;;;12.34;100.00
71976;BME280;68326;52.124;5.424;2023-04-28T10:19:55;101012.19;;;12.39;100.00
71976;BME280;68326;52.124;5.424;2023-04-28T10:27:38;101013.22;;;12.37;100.00
71976;BME280;68326;52.124;5.424;2023-04-28T10:30:12;101015.63;;;12.40;100.00
71976;BME280;68326;52.124;5.424;2023-04-28T10:33:23;101014.53;;;12.44;100.00
71976;BME280;68326;52.124;5.424;2023-04-28T10:35:52;101026.00;;;12.41;100.00
71976;BME280;68326;52.124;5.424;2023-04-28T10:38:19;101017.16;;;12.44;100.00
71976;BME280;68326;52.124;5.424;2023-04-28T10:40:52;101015.97;;;12.50;100.00
71976;BME280;68326;52.124;5.424;2023-04-28T10:46:02;101011.31;;;12.55;100.00
71976;BME280;68326;52.124;5.424;2023-04-28T10:56:16;101012.91;;;12.57;100.00
71976;BME280;68326;52.124;5.424;2023-04-28T11:01:26;101015.34;;;12.76;100.00
71976;BME280;68326;52.124;5.424;2023-04-28T11:04:05;101018.44;;;12.83;100.00
71976;BME280;68326;52.124;5.424;2023-04-28T11:06:44;101004.63;;;12.81;100.00
71976;BME280;68326;52.124;5.424;2023-04-28T11:11:38;101008.31;;;12.93;100.00
71976;BME280;68326;52.124;5.424;2023-04-28T11:17:04;101015.69;;;13.00;100.00
71976;BME280;68326;52.124;5.424;2023-04-28T11:19:39;101018.22;;;13.02;100.00
71976;BME280;68326;52.124;5.424;2023-04-28T11:22:13;101008.31;;;12.93;100.00
71976;BME280;68326;52.124;5.424;2023-04-28T11:24:40;101007.81;;;12.86;100.00
71976;BME280;68326;52.124;5.424;2023-04-28T11:27:07;101005.47;;;12.81;100.00
71976;BME280;68326;52.124;5.424;2023-04-28T11:29:36;101000.25;;;12.81;100.00
71976;BME280;68326;52.124;5.424;2023-04-28T11:32:07;100995.53;;;12.88;100.00
71976;BME280;68326;52.124;5.424;2023-04-28T11:34:35;100999.03;;;12.87;100.00
71976;BME280;68326;52.124;5.424;2023-04-28T11:37:03;101004.13;;;12.90;100.00
71976;BME280;68326;52.124;5.424;2023-04-28T11:39:32;101000.13;;;12.99;100.00
71976;BME280;68326;52.124;5.424;2023-04-28T11:42:01;101003.31;;;13.04;100.00
71976;BME280;68326;52.124;5.424;2023-04-28T11:44:29;100996.81;;;13.11;100.00
71976;BME280;68326;52.124;5.424;2023-04-28T11:46:58;101002.03;;;13.11;100.00
71976;BME280;68326;52.124;5.424;2023-04-28T11:49:42;101005.56;;;13.10;100.00
71976;BME280;68326;52.124;5.424;2023-04-28T11:52:09;101003.78;;;13.11;100.00
71976;BME280;68326;52.124;5.424;2023-04-28T11:54:36;101011.13;;;13.04;100.00
71976;BME280;68326;52.124;5.424;2023-04-28T11:57:04;101007.59;;;13.05;100.00
71976;BME280;68326;52.124;5.424;2023-04-28T11:59:34;101007.34;;;13.10;100.00
71976;BME280;68326;52.124;5.424;2023-04-28T12:02:03;101007.13;;;13.13;100.00
71976;BME280;68326;52.124;5.424;2023-04-28T12:04:36;101008.91;;;13.12;100.00
71976;BME280;68326;52.124;5.424;2023-04-28T12:07:16;101006.22;;;13.14;100.00
71976;BME280;68326;52.124;5.424;2023-04-28T12:10:10;100999.78;;;13.19;100.00
71976;BME280;68326;52.124;5.424;2023-04-28T12:12:37;101005.94;;;13.18;100.00
71976;BME280;68326;52.124;5.424;2023-04-28T12:15:17;101008.47;;;13.20;100.00
71976;BME280;68326;52.124;5.424;2023-04-28T12:17:46;101009.03;;;13.25;100.00
71976;BME280;68326;52.124;5.424;2023-04-28T12:20:32;101004.56;;;13.27;100.00
71976;BME280;68326;52.124;5.424;2023-04-28T12:23:00;101004.75;;;13.24;100.00
71976;BME280;68326;52.124;5.424;2023-04-28T12:25:28;101008.84;;;13.28;100.00
71976;BME280;68326;52.124;5.424;2023-04-28T12:28:04;101018.13;;;13.34;100.00
71976;BME280;68326;52.124;5.424;2023-04-28T12:30:34;101015.53;;;13.34;100.00
71976;BME280;68326;52.124;5.424;2023-04-28T12:33:04;101016.47;;;13.33;100.00
71976;BME280;68326;52.124;5.424;2023-04-28T12:35:30;101013.00;;;13.32;100.00
71976;BME280;68326;52.124;5.424;2023-04-28T12:37:58;101021.44;;;13.37;100.00
71976;BME280;68326;52.124;5.424;2023-04-28T12:40:25;101016.75;;;13.42;100.00
71976;BME280;68326;52.124;5.424;2023-04-28T12:42:51;101017.59;;;13.43;100.00
71976;BME280;68326;52.124;5.424;2023-04-28T12:45:18;101015.09;;;13.41;100.00
71976;BME280;68326;52.124;5.424;2023-04-28T12:47:44;101016.66;;;13.44;100.00
71976;BME280;68326;52.124;5.424;2023-04-28T12:50:11;101017.06;;;13.52;100.00
71976;BME280;68326;52.124;5.424;2023-04-28T12:52:38;101015.19;;;13.54;100.00
71976;BME280;68326;52.124;5.424;2023-04-28T12:55:04;101012.09;;;13.62;100.00
71976;BME280;68326;52.124;5.424;2023-04-28T12:57:31;101012.66;;;13.67;100.00
71976;BME280;68326;52.124;5.424;2023-04-28T12:59:58;101015.75;;;13.74;100.00
71976;BME280;68326;52.124;5.424;2023-04-28T13:02:24;101024.72;;;13.70;100.00
71976;BME280;68326;52.124;5.424;2023-04-28T13:04:51;101016.69;;;13.58;100.00
71976;BME280;68326;52.124;5.424;2023-04-28T13:07:18;101022.94;;;13.56;100.00
71976;BME280;68326;52.124;5.424;2023-04-28T13:09:45;101020.88;;;13.61;100.00
71976;BME280;68326;52.124;5.424;2023-04-28T13:12:13;101022.09;;;13.70;100.00
71976;BME280;68326;52.124;5.424;2023-04-28T13:14:40;101022.00;;;13.85;100.00
71976;BME280;68326;52.124;5.424;2023-04-28T13:17:07;101020.25;;;13.86;100.00
71976;BME280;68326;52.124;5.424;2023-04-28T13:19:34;101017.78;;;13.83;100.00
71976;BME280;68326;52.124;5.424;2023-04-28T13:22:00;101017.63;;;13.72;100.00